sensor_id;sensor_type;location;lat;lon;timestamp;temperature;humidity
21261;DHT22;10788;47.930;9.766;2024-03-29T00:00:45;5.60;99.90
21261;DHT22;10788;47.930;9.766;2024-03-29T00:03:11;5.70;99.90
21261;DHT22;10788;47.930;9.766;2024-03-29T00:05:37;5.50;99.90
21261;DHT22;10788;47.930;9.766;2024-03-29T00:08:03;5.50;99.90
21261;DHT22;10788;47.930;9.766;2024-03-29T00:10:29;5.40;99.90
21261;DHT22;10788;47.930;9.766;2024-03-29T00:12:55;5.40;99.90
21261;DHT22;10788;47.930;9.766;2024-03-29T00:15:20;5.30;99.90
21261;DHT22;10788;47.930;9.766;2024-03-29T00:17:46;5.40;99.90
21261;DHT22;10788;47.930;9.766;2024-03-29T00:20:12;5.40;99.90
21261;DHT22;10788;47.930;9.766;2024-03-29T00:22:37;5.30;99.90
21261;DHT22;10788;47.930;9.766;2024-03-29T00:25:04;5.30;99.90
21261;DHT22;10788;47.930;9.766;2024-03-29T00:27:30;5.30;99.90
21261;DHT22;10788;47.930;9.766;2024-03-29T00:29:56;5.20;99.90
21261;DHT22;10788;47.930;9.766;2024-03-29T00:32:22;5.20;99.90
21261;DHT22;10788;47.930;9.766;2024-03-29T00:34:52;5.30;99.90
21261;DHT22;10788;47.930;9.766;2024-03-29T00:37:18;5.40;99.90
21261;DHT22;10788;47.930;9.766;2024-03-29T00:39:44;5.50;99.90
21261;DHT22;10788;47.930;9.766;2024-03-29T00:42:10;5.50;99.90
21261;DHT22;10788;47.930;9.766;2024-03-29T00:44:40;5.50;99.90
21261;DHT22;10788;47.930;9.766;2024-03-29T00:47:06;5.70;99.90
21261;DHT22;10788;47.930;9.766;2024-03-29T00:49:32;5.70;99.90
21261;DHT22;10788;47.930;9.766;2024-03-29T00:51:57;5.80;99.90
21261;DHT22;10788;47.930;9.766;2024-03-29T00:54:23;5.80;99.90
21261;DHT22;10788;47.930;9.766;2024-03-29T00:56:49;5.70;99.90
21261;DHT22;10788;47.930;9.766;2024-03-29T00:59:15;5.60;99.90
21261;DHT22;10788;47.930;9.766;2024-03-29T01:01:41;5.60;99.90
21261;DHT22;10788;47.930;9.766;2024-03-29T01:04:07;5.60;99.90
21261;DHT22;10788;47.930;9.766;2024-03-29T01:06:32;5.60;99.90
21261;DHT22;10788;47.930;9.766;2024-03-29T01:08:59;5.60;99.90
21261;DHT22;10788;47.930;9.766;2024-03-29T01:11:25;5.60;99.90
21261;DHT22;10788;47.930;9.766;2024-03-29T01:13:50;5.70;99.90
21261;DHT22;10788;47.930;9.766;2024-03-29T01:16:16;5.60;99.90
21261;DHT22;10788;47.930;9.766;2024-03-29T01:18:42;5.60;99.90
21261;DHT22;10788;47.930;9.766;2024-03-29T01:21:09;5.50;99.90
21261;DHT22;10788;47.930;9.766;2024-03-29T01:23:35;5.50;99.90
21261;DHT22;10788;47.930;9.766;2024-03-29T01:26:01;5.60;99.90
21261;DHT22;10788;47.930;9.766;2024-03-29T01:28:26;5.50;99.90
21261;DHT22;10788;47.930;9.766;2024-03-29T01:30:53;5.50;99.90
21261;DHT22;10788;47.930;9.766;2024-03-29T01:33:18;5.50;99.90
21261;DHT22;10788;47.930;9.766;2024-03-29T01:35:44;5.40;99.90
21261;DHT22;10788;47.930;9.766;2024-03-29T01:38:10;5.40;99.90
21261;DHT22;10788;47.930;9.766;2024-03-29T01:40:35;5.40;99.90
21261;DHT22;10788;47.930;9.766;2024-03-29T01:43:01;5.40;99.90
21261;DHT22;10788;47.930;9.766;2024-03-29T01:45:27;5.40;99.90
21261;DHT22;10788;47.930;9.766;2024-03-29T01:47:53;5.40;99.90
21261;DHT22;10788;47.930;9.766;2024-03-29T01:50:19;5.30;99.90
21261;DHT22;10788;47.930;9.766;2024-03-29T01:52:45;5.20;99.90
21261;DHT22;10788;47.930;9.766;2024-03-29T01:55:11;5.20;99.90
21261;DHT22;10788;47.930;9.766;2024-03-29T01:57:37;5.10;99.90
21261;DHT22;10788;47.930;9.766;2024-03-29T02:00:04;5.00;99.90
21261;DHT22;10788;47.930;9.766;2024-03-29T02:02:32;5.00;99.90
21261;DHT22;10788;47.930;9.766;2024-03-29T02:04:58;5.00;99.90
21261;DHT22;10788;47.930;9.766;2024-03-29T02:07:25;4.80;99.90
21261;DHT22;10788;47.930;9.766;2024-03-29T02:09:50;4.90;99.90
21261;DHT22;10788;47.930;9.766;2024-03-29T02:12:16;4.60;99.90
21261;DHT22;10788;47.930;9.766;2024-03-29T02:14:42;4.30;99.90
21261;DHT22;10788;47.930;9.766;2024-03-29T02:17:08;4.30;99.90
21261;DHT22;10788;47.930;9.766;2024-03-29T02:19:34;4.20;99.90
21261;DHT22;10788;47.930;9.766;2024-03-29T02:22:00;4.20;99.90
21261;DHT22;10788;47.930;9.766;2024-03-29T02:24:27;4.00;99.90
21261;DHT22;10788;47.930;9.766;2024-03-29T02:26:56;3.90;99.90
21261;DHT22;10788;47.930;9.766;2024-03-29T02:29:23;3.90;99.90
21261;DHT22;10788;47.930;9.766;2024-03-29T02:31:49;3.80;99.90
21261;DHT22;10788;47.930;9.766;2024-03-29T02:34:14;3.60;99.90
21261;DHT22;10788;47.930;9.766;2024-03-29T02:36:40;3.60;99.90
21261;DHT22;10788;47.930;9.766;2024-03-29T02:39:09;3.70;99.90
21261;DHT22;10788;47.930;9.766;2024-03-29T02:41:35;3.70;99.90
21261;DHT22;10788;47.930;9.766;2024-03-29T02:44:01;3.80;99.90
21261;DHT22;10788;47.930;9.766;2024-03-29T02:46:26;3.80;99.90
21261;DHT22;10788;47.930;9.766;2024-03-29T02:48:52;3.80;99.90
21261;DHT22;10788;47.930;9.766;2024-03-29T02:51:18;3.80;99.90
21261;DHT22;10788;47.930;9.766;2024-03-29T02:53:43;3.90;99.90
21261;DHT22;10788;47.930;9.766;2024-03-29T02:56:09;4.00;99.90
21261;DHT22;10788;47.930;9.766;2024-03-29T02:58:35;4.00;99.90
21261;DHT22;10788;47.930;9.766;2024-03-29T03:01:07;4.10;99.90
21261;DHT22;10788;47.930;9.766;2024-03-29T03:03:34;4.10;99.90
21261;DHT22;10788;47.930;9.766;2024-03-29T03:06:00;4.10;99.90
21261;DHT22;10788;47.930;9.766;2024-03-29T03:08:25;4.00;99.90
21261;DHT22;10788;47.930;9.766;2024-03-29T03:11:10;4.00;99.90
21261;DHT22;10788;47.930;9.766;2024-03-29T03:13:35;4.00;99.90
21261;DHT22;10788;47.930;9.766;2024-03-29T03:16:01;4.00;99.90
21261;DHT22;10788;47.930;9.766;2024-03-29T03:18:26;4.00;99.90
21261;DHT22;10788;47.930;9.766;2024-03-29T03:20:53;4.00;99.90
21261;DHT22;10788;47.930;9.766;2024-03-29T03:23:19;4.00;99.90
21261;DHT22;10788;47.930;9.766;2024-03-29T03:25:58;4.00;99.90
21261;DHT22;10788;47.930;9.766;2024-03-29T03:28:24;4.00;99.90
21261;DHT22;10788;47.930;9.766;2024-03-29T03:30:51;4.00;99.90
21261;DHT22;10788;47.930;9.766;2024-03-29T03:33:17;4.00;99.90
21261;DHT22;10788;47.930;9.766;2024-03-29T03:35:43;4.00;99.90
21261;DHT22;10788;47.930;9.766;2024-03-29T03:38:09;3.90;99.90
21261;DHT22;10788;47.930;9.766;2024-03-29T03:40:35;3.90;99.90
21261;DHT22;10788;47.930;9.766;2024-03-29T03:43:05;3.70;99.90
21261;DHT22;10788;47.930;9.766;2024-03-29T03:45:49;3.70;99.90
21261;DHT22;10788;47.930;9.766;2024-03-29T03:48:15;3.70;99.90
21261;DHT22;10788;47.930;9.766;2024-03-29T03:50:40;3.60;99.90
21261;DHT22;10788;47.930;9.766;2024-03-29T03:53:07;3.70;99.90
21261;DHT22;10788;47.930;9.766;2024-03-29T03:55:37;3.60;99.90
21261;DHT22;10788;47.930;9.766;2024-03-29T03:58:03;3.50;99.90
21261;DHT22;10788;47.930;9.766;2024-03-29T04:00:28;3.40;99.90
21261;DHT22;10788;47.930;9.766;2024-03-29T04:02:54;3.40;99.90
21261;DHT22;10788;47.930;9.766;2024-03-29T04:05:22;3.30;99.90
21261;DHT22;10788;47.930;9.766;2024-03-29T04:07:48;3.30;99.90
21261;DHT22;10788;47.930;9.766;2024-03-29T04:10:14;3.30;99.90
21261;DHT22;10788;47.930;9.766;2024-03-29T04:12:40;3.30;99.90
21261;DHT22;10788;47.930;9.766;2024-03-29T04:15:06;3.30;99.90
21261;DHT22;10788;47.930;9.766;2024-03-29T04:17:32;3.50;99.90
21261;DHT22;10788;47.930;9.766;2024-03-29T04:19:58;3.60;99.90
21261;DHT22;10788;47.930;9.766;2024-03-29T04:22:24;3.70;99.90
21261;DHT22;10788;47.930;9.766;2024-03-29T04:24:51;3.80;99.90
21261;DHT22;10788;47.930;9.766;2024-03-29T04:27:16;4.00;99.90
21261;DHT22;10788;47.930;9.766;2024-03-29T04:29:42;4.20;99.90
21261;DHT22;10788;47.930;9.766;2024-03-29T04:32:08;4.50;99.90
21261;DHT22;10788;47.930;9.766;2024-03-29T04:34:33;4.70;99.90
21261;DHT22;10788;47.930;9.766;2024-03-29T04:36:59;4.80;99.90
21261;DHT22;10788;47.930;9.766;2024-03-29T04:39:25;4.90;99.90
21261;DHT22;10788;47.930;9.766;2024-03-29T04:41:50;5.00;99.90
21261;DHT22;10788;47.930;9.766;2024-03-29T04:44:28;5.10;99.90
21261;DHT22;10788;47.930;9.766;2024-03-29T04:46:54;4.90;99.90
21261;DHT22;10788;47.930;9.766;2024-03-29T04:49:21;4.70;99.90
21261;DHT22;10788;47.930;9.766;2024-03-29T04:51:51;4.60;99.90
21261;DHT22;10788;47.930;9.766;2024-03-29T04:54:17;4.50;99.90
21261;DHT22;10788;47.930;9.766;2024-03-29T04:56:43;4.40;99.90
21261;DHT22;10788;47.930;9.766;2024-03-29T04:59:08;4.40;99.90
21261;DHT22;10788;47.930;9.766;2024-03-29T05:01:36;4.30;99.90
21261;DHT22;10788;47.930;9.766;2024-03-29T05:04:01;4.20;99.90
21261;DHT22;10788;47.930;9.766;2024-03-29T05:06:28;4.00;99.90
21261;DHT22;10788;47.930;9.766;2024-03-29T05:08:54;3.80;99.90
21261;DHT22;10788;47.930;9.766;2024-03-29T05:11:20;3.70;99.90
21261;DHT22;10788;47.930;9.766;2024-03-29T05:13:46;3.70;99.90
21261;DHT22;10788;47.930;9.766;2024-03-29T05:16:12;3.40;99.90
21261;DHT22;10788;47.930;9.766;2024-03-29T05:18:37;3.40;99.90
21261;DHT22;10788;47.930;9.766;2024-03-29T05:21:03;3.40;99.90
21261;DHT22;10788;47.930;9.766;2024-03-29T05:23:29;3.50;99.90
21261;DHT22;10788;47.930;9.766;2024-03-29T05:25:54;3.40;99.90
21261;DHT22;10788;47.930;9.766;2024-03-29T05:28:21;3.50;99.90
21261;DHT22;10788;47.930;9.766;2024-03-29T05:30:46;3.50;99.90
21261;DHT22;10788;47.930;9.766;2024-03-29T05:33:12;3.50;99.90
21261;DHT22;10788;47.930;9.766;2024-03-29T05:35:38;3.50;99.90
21261;DHT22;10788;47.930;9.766;2024-03-29T05:38:04;3.50;99.90
21261;DHT22;10788;47.930;9.766;2024-03-29T05:40:29;3.50;99.90
21261;DHT22;10788;47.930;9.766;2024-03-29T05:42:55;3.50;99.90
21261;DHT22;10788;47.930;9.766;2024-03-29T05:45:29;3.50;99.90
21261;DHT22;10788;47.930;9.766;2024-03-29T05:47:56;3.50;99.90
21261;DHT22;10788;47.930;9.766;2024-03-29T05:50:22;3.50;99.90
21261;DHT22;10788;47.930;9.766;2024-03-29T05:52:48;3.50;99.90
21261;DHT22;10788;47.930;9.766;2024-03-29T05:55:14;3.60;99.90
21261;DHT22;10788;47.930;9.766;2024-03-29T05:57:40;3.60;99.90
21261;DHT22;10788;47.930;9.766;2024-03-29T06:00:11;3.70;99.90
21261;DHT22;10788;47.930;9.766;2024-03-29T06:02:37;3.70;99.90
21261;DHT22;10788;47.930;9.766;2024-03-29T06:05:03;3.70;99.90
21261;DHT22;10788;47.930;9.766;2024-03-29T06:07:30;3.80;99.90
21261;DHT22;10788;47.930;9.766;2024-03-29T06:10:01;3.90;99.90
21261;DHT22;10788;47.930;9.766;2024-03-29T06:12:33;3.90;99.90
21261;DHT22;10788;47.930;9.766;2024-03-29T06:14:59;3.90;99.90
21261;DHT22;10788;47.930;9.766;2024-03-29T06:17:43;4.00;99.90
21261;DHT22;10788;47.930;9.766;2024-03-29T06:20:10;3.90;99.90
21261;DHT22;10788;47.930;9.766;2024-03-29T06:22:35;4.00;99.90
21261;DHT22;10788;47.930;9.766;2024-03-29T06:25:01;4.10;99.90
21261;DHT22;10788;47.930;9.766;2024-03-29T06:27:33;4.20;99.90
21261;DHT22;10788;47.930;9.766;2024-03-29T06:30:00;4.20;99.90
21261;DHT22;10788;47.930;9.766;2024-03-29T06:32:26;4.30;99.90
21261;DHT22;10788;47.930;9.766;2024-03-29T06:34:51;4.40;99.90
21261;DHT22;10788;47.930;9.766;2024-03-29T06:37:17;4.60;99.90
21261;DHT22;10788;47.930;9.766;2024-03-29T06:39:43;4.70;99.90
21261;DHT22;10788;47.930;9.766;2024-03-29T06:42:09;5.00;99.90
21261;DHT22;10788;47.930;9.766;2024-03-29T06:44:35;5.20;99.90
21261;DHT22;10788;47.930;9.766;2024-03-29T06:47:02;5.30;99.90
21261;DHT22;10788;47.930;9.766;2024-03-29T06:49:28;5.40;99.90
21261;DHT22;10788;47.930;9.766;2024-03-29T06:51:54;5.50;99.90
21261;DHT22;10788;47.930;9.766;2024-03-29T06:54:21;5.70;99.90
21261;DHT22;10788;47.930;9.766;2024-03-29T06:56:55;6.00;99.90
21261;DHT22;10788;47.930;9.766;2024-03-29T06:59:21;6.10;99.90
21261;DHT22;10788;47.930;9.766;2024-03-29T07:01:47;6.40;99.90
21261;DHT22;10788;47.930;9.766;2024-03-29T07:04:13;6.70;99.90
21261;DHT22;10788;47.930;9.766;2024-03-29T07:06:39;7.00;99.90
21261;DHT22;10788;47.930;9.766;2024-03-29T07:09:07;7.10;99.90
21261;DHT22;10788;47.930;9.766;2024-03-29T07:11:32;7.40;99.90
21261;DHT22;10788;47.930;9.766;2024-03-29T07:13:58;7.60;99.90
21261;DHT22;10788;47.930;9.766;2024-03-29T07:16:24;7.80;99.90
21261;DHT22;10788;47.930;9.766;2024-03-29T07:18:49;8.20;99.90
21261;DHT22;10788;47.930;9.766;2024-03-29T07:21:15;8.50;99.90
21261;DHT22;10788;47.930;9.766;2024-03-29T07:23:40;8.90;99.90
21261;DHT22;10788;47.930;9.766;2024-03-29T07:26:06;9.10;99.90
21261;DHT22;10788;47.930;9.766;2024-03-29T07:28:32;9.50;99.90
21261;DHT22;10788;47.930;9.766;2024-03-29T07:30:58;9.90;99.90
21261;DHT22;10788;47.930;9.766;2024-03-29T07:33:31;10.20;99.90
21261;DHT22;10788;47.930;9.766;2024-03-29T07:35:57;10.60;99.90
21261;DHT22;10788;47.930;9.766;2024-03-29T07:38:23;11.00;99.90
21261;DHT22;10788;47.930;9.766;2024-03-29T07:40:52;11.20;99.90
21261;DHT22;10788;47.930;9.766;2024-03-29T07:43:21;11.50;99.90
21261;DHT22;10788;47.930;9.766;2024-03-29T07:45:47;11.80;99.90
21261;DHT22;10788;47.930;9.766;2024-03-29T07:48:15;11.90;99.90
21261;DHT22;10788;47.930;9.766;2024-03-29T07:50:45;12.10;99.90
21261;DHT22;10788;47.930;9.766;2024-03-29T07:53:10;12.40;99.90
21261;DHT22;10788;47.930;9.766;2024-03-29T07:55:38;12.60;99.90
21261;DHT22;10788;47.930;9.766;2024-03-29T07:58:04;12.70;99.90
21261;DHT22;10788;47.930;9.766;2024-03-29T08:00:34;12.90;99.90
21261;DHT22;10788;47.930;9.766;2024-03-29T08:03:00;13.00;99.90
21261;DHT22;10788;47.930;9.766;2024-03-29T08:05:27;13.10;99.90
21261;DHT22;10788;47.930;9.766;2024-03-29T08:07:53;13.30;99.90
21261;DHT22;10788;47.930;9.766;2024-03-29T08:10:18;13.70;99.90
21261;DHT22;10788;47.930;9.766;2024-03-29T08:12:44;13.80;99.90
21261;DHT22;10788;47.930;9.766;2024-03-29T08:15:09;13.90;99.90
21261;DHT22;10788;47.930;9.766;2024-03-29T08:17:36;13.90;99.90
21261;DHT22;10788;47.930;9.766;2024-03-29T08:20:02;14.00;99.90
21261;DHT22;10788;47.930;9.766;2024-03-29T08:22:28;14.10;99.90
21261;DHT22;10788;47.930;9.766;2024-03-29T08:24:55;14.10;99.90
21261;DHT22;10788;47.930;9.766;2024-03-29T08:27:20;14.30;99.90
21261;DHT22;10788;47.930;9.766;2024-03-29T08:29:46;14.50;99.90
21261;DHT22;10788;47.930;9.766;2024-03-29T08:32:12;14.70;99.90
21261;DHT22;10788;47.930;9.766;2024-03-29T08:34:38;14.80;99.90
21261;DHT22;10788;47.930;9.766;2024-03-29T08:37:04;14.80;99.90
21261;DHT22;10788;47.930;9.766;2024-03-29T08:39:30;14.80;99.90
21261;DHT22;10788;47.930;9.766;2024-03-29T08:42:00;14.70;99.90
21261;DHT22;10788;47.930;9.766;2024-03-29T08:44:33;14.60;99.90
21261;DHT22;10788;47.930;9.766;2024-03-29T08:46:59;14.60;99.90
21261;DHT22;10788;47.930;9.766;2024-03-29T08:49:29;14.60;99.90
21261;DHT22;10788;47.930;9.766;2024-03-29T08:51:58;14.60;99.90
21261;DHT22;10788;47.930;9.766;2024-03-29T08:54:25;14.60;99.90
21261;DHT22;10788;47.930;9.766;2024-03-29T08:56:53;14.50;99.90
21261;DHT22;10788;47.930;9.766;2024-03-29T08:59:19;14.60;99.90
21261;DHT22;10788;47.930;9.766;2024-03-29T09:01:45;14.60;99.90
21261;DHT22;10788;47.930;9.766;2024-03-29T09:04:14;14.60;99.90
21261;DHT22;10788;47.930;9.766;2024-03-29T09:06:41;14.70;99.90
21261;DHT22;10788;47.930;9.766;2024-03-29T09:09:07;14.70;99.90
21261;DHT22;10788;47.930;9.766;2024-03-29T09:11:33;14.70;99.90
21261;DHT22;10788;47.930;9.766;2024-03-29T09:13:59;14.70;99.90
21261;DHT22;10788;47.930;9.766;2024-03-29T09:16:25;14.80;99.90
21261;DHT22;10788;47.930;9.766;2024-03-29T09:18:51;14.90;99.90
21261;DHT22;10788;47.930;9.766;2024-03-29T09:21:17;15.00;99.90
21261;DHT22;10788;47.930;9.766;2024-03-29T09:23:45;15.00;99.90
21261;DHT22;10788;47.930;9.766;2024-03-29T09:26:10;15.20;99.90
21261;DHT22;10788;47.930;9.766;2024-03-29T09:28:37;15.30;99.90
21261;DHT22;10788;47.930;9.766;2024-03-29T09:31:03;15.50;99.90
21261;DHT22;10788;47.930;9.766;2024-03-29T09:33:29;15.70;99.90
21261;DHT22;10788;47.930;9.766;2024-03-29T09:35:54;16.00;99.90
21261;DHT22;10788;47.930;9.766;2024-03-29T09:38:21;16.20;99.90
21261;DHT22;10788;47.930;9.766;2024-03-29T09:40:47;16.30;99.90
21261;DHT22;10788;47.930;9.766;2024-03-29T09:43:16;16.40;99.90
21261;DHT22;10788;47.930;9.766;2024-03-29T09:45:43;16.30;99.90
21261;DHT22;10788;47.930;9.766;2024-03-29T09:48:09;16.30;99.90
21261;DHT22;10788;47.930;9.766;2024-03-29T09:50:35;16.40;99.90
21261;DHT22;10788;47.930;9.766;2024-03-29T09:53:02;16.40;99.90
21261;DHT22;10788;47.930;9.766;2024-03-29T09:55:29;16.50;99.90
21261;DHT22;10788;47.930;9.766;2024-03-29T09:57:55;16.50;99.90
21261;DHT22;10788;47.930;9.766;2024-03-29T10:00:21;16.50;99.90
21261;DHT22;10788;47.930;9.766;2024-03-29T10:02:49;16.40;99.90
21261;DHT22;10788;47.930;9.766;2024-03-29T10:05:15;16.50;99.90
21261;DHT22;10788;47.930;9.766;2024-03-29T10:07:43;16.50;99.90
21261;DHT22;10788;47.930;9.766;2024-03-29T10:10:10;16.60;99.90
21261;DHT22;10788;47.930;9.766;2024-03-29T10:12:37;16.70;99.90
21261;DHT22;10788;47.930;9.766;2024-03-29T10:15:03;16.80;99.90
21261;DHT22;10788;47.930;9.766;2024-03-29T10:17:47;16.70;99.90
21261;DHT22;10788;47.930;9.766;2024-03-29T10:20:17;16.80;99.90
21261;DHT22;10788;47.930;9.766;2024-03-29T10:22:44;16.90;99.90
21261;DHT22;10788;47.930;9.766;2024-03-29T10:25:12;17.00;99.90
21261;DHT22;10788;47.930;9.766;2024-03-29T10:27:39;17.10;99.90
21261;DHT22;10788;47.930;9.766;2024-03-29T10:30:06;17.10;99.90
21261;DHT22;10788;47.930;9.766;2024-03-29T10:32:34;17.20;99.90
21261;DHT22;10788;47.930;9.766;2024-03-29T10:35:06;17.30;99.90
21261;DHT22;10788;47.930;9.766;2024-03-29T10:37:32;17.30;99.90
21261;DHT22;10788;47.930;9.766;2024-03-29T10:40:08;17.40;99.90
21261;DHT22;10788;47.930;9.766;2024-03-29T10:42:37;17.40;99.90
21261;DHT22;10788;47.930;9.766;2024-03-29T10:45:05;17.50;99.90
21261;DHT22;10788;47.930;9.766;2024-03-29T10:47:32;17.50;99.90
21261;DHT22;10788;47.930;9.766;2024-03-29T10:49:58;17.40;99.90
21261;DHT22;10788;47.930;9.766;2024-03-29T10:52:25;17.50;99.90
21261;DHT22;10788;47.930;9.766;2024-03-29T10:54:51;17.60;99.90
21261;DHT22;10788;47.930;9.766;2024-03-29T10:57:23;17.60;99.90
21261;DHT22;10788;47.930;9.766;2024-03-29T11:00:13;17.60;99.90
21261;DHT22;10788;47.930;9.766;2024-03-29T11:02:57;17.60;99.90
21261;DHT22;10788;47.930;9.766;2024-03-29T11:05:29;17.60;99.90
21261;DHT22;10788;47.930;9.766;2024-03-29T11:07:56;17.60;99.90
21261;DHT22;10788;47.930;9.766;2024-03-29T11:10:30;17.60;99.90
21261;DHT22;10788;47.930;9.766;2024-03-29T11:13:25;17.50;99.90
21261;DHT22;10788;47.930;9.766;2024-03-29T11:15:52;17.60;99.90
21261;DHT22;10788;47.930;9.766;2024-03-29T11:18:20;17.50;99.90
21261;DHT22;10788;47.930;9.766;2024-03-29T11:20:47;17.50;99.90
21261;DHT22;10788;47.930;9.766;2024-03-29T11:23:18;17.50;99.90
21261;DHT22;10788;47.930;9.766;2024-03-29T11:25:52;17.60;99.90
21261;DHT22;10788;47.930;9.766;2024-03-29T11:28:35;17.80;99.90
21261;DHT22;10788;47.930;9.766;2024-03-29T11:31:06;18.00;97.80
21261;DHT22;10788;47.930;9.766;2024-03-29T11:36:15;18.10;96.30
21261;DHT22;10788;47.930;9.766;2024-03-29T11:38:48;18.20;94.90
21261;DHT22;10788;47.930;9.766;2024-03-29T11:41:19;18.30;94.60
21261;DHT22;10788;47.930;9.766;2024-03-29T11:43:47;18.40;1.00
21261;DHT22;10788;47.930;9.766;2024-03-29T11:46:14;18.40;1.00
21261;DHT22;10788;47.930;9.766;2024-03-29T11:48:41;18.50;1.00
21261;DHT22;10788;47.930;9.766;2024-03-29T11:51:08;18.50;1.00
21261;DHT22;10788;47.930;9.766;2024-03-29T11:53:35;18.50;1.00
21261;DHT22;10788;47.930;9.766;2024-03-29T11:56:02;18.60;1.00
21261;DHT22;10788;47.930;9.766;2024-03-29T11:58:30;18.50;1.00
21261;DHT22;10788;47.930;9.766;2024-03-29T12:00:57;18.70;1.00
21261;DHT22;10788;47.930;9.766;2024-03-29T12:03:25;18.90;1.00
21261;DHT22;10788;47.930;9.766;2024-03-29T12:05:51;19.00;1.00
21261;DHT22;10788;47.930;9.766;2024-03-29T12:08:20;19.20;1.00
21261;DHT22;10788;47.930;9.766;2024-03-29T12:10:46;19.30;1.00
21261;DHT22;10788;47.930;9.766;2024-03-29T12:13:15;19.40;1.00
21261;DHT22;10788;47.930;9.766;2024-03-29T12:15:41;19.50;99.90
21261;DHT22;10788;47.930;9.766;2024-03-29T12:18:07;19.70;99.90
21261;DHT22;10788;47.930;9.766;2024-03-29T12:20:33;19.70;99.90
21261;DHT22;10788;47.930;9.766;2024-03-29T12:23:02;19.70;99.90
21261;DHT22;10788;47.930;9.766;2024-03-29T12:25:29;19.70;99.90
21261;DHT22;10788;47.930;9.766;2024-03-29T12:27:55;19.80;99.90
21261;DHT22;10788;47.930;9.766;2024-03-29T12:30:22;19.80;99.90
21261;DHT22;10788;47.930;9.766;2024-03-29T12:32:47;19.90;99.90
21261;DHT22;10788;47.930;9.766;2024-03-29T12:35:15;20.00;99.90
21261;DHT22;10788;47.930;9.766;2024-03-29T12:37:48;19.80;99.90
21261;DHT22;10788;47.930;9.766;2024-03-29T12:40:16;19.80;99.90
21261;DHT22;10788;47.930;9.766;2024-03-29T12:42:50;19.80;99.90
21261;DHT22;10788;47.930;9.766;2024-03-29T12:45:20;19.80;99.90
21261;DHT22;10788;47.930;9.766;2024-03-29T12:47:48;19.90;99.90
21261;DHT22;10788;47.930;9.766;2024-03-29T12:50:24;19.90;99.90
21261;DHT22;10788;47.930;9.766;2024-03-29T12:52:50;19.90;99.90
21261;DHT22;10788;47.930;9.766;2024-03-29T12:55:18;20.00;99.90
21261;DHT22;10788;47.930;9.766;2024-03-29T12:57:44;20.00;99.90
21261;DHT22;10788;47.930;9.766;2024-03-29T13:00:11;20.10;99.90
21261;DHT22;10788;47.930;9.766;2024-03-29T13:02:36;20.10;99.90
21261;DHT22;10788;47.930;9.766;2024-03-29T13:05:06;20.20;99.90
21261;DHT22;10788;47.930;9.766;2024-03-29T13:07:32;20.20;99.90
21261;DHT22;10788;47.930;9.766;2024-03-29T13:09:59;20.30;99.90
21261;DHT22;10788;47.930;9.766;2024-03-29T13:12:31;20.30;99.90
21261;DHT22;10788;47.930;9.766;2024-03-29T13:15:01;20.30;99.90
21261;DHT22;10788;47.930;9.766;2024-03-29T13:17:26;20.40;99.90
21261;DHT22;10788;47.930;9.766;2024-03-29T13:19:52;20.40;99.90
21261;DHT22;10788;47.930;9.766;2024-03-29T13:22:18;20.30;99.90
21261;DHT22;10788;47.930;9.766;2024-03-29T13:24:44;20.30;99.90
21261;DHT22;10788;47.930;9.766;2024-03-29T13:27:09;20.40;99.90
21261;DHT22;10788;47.930;9.766;2024-03-29T13:29:35;20.40;99.90
21261;DHT22;10788;47.930;9.766;2024-03-29T13:32:00;20.50;99.90
21261;DHT22;10788;47.930;9.766;2024-03-29T13:34:26;20.50;99.90
21261;DHT22;10788;47.930;9.766;2024-03-29T13:36:52;20.50;99.90
21261;DHT22;10788;47.930;9.766;2024-03-29T13:39:18;20.50;99.90
21261;DHT22;10788;47.930;9.766;2024-03-29T13:41:43;20.50;99.90
21261;DHT22;10788;47.930;9.766;2024-03-29T13:44:09;20.60;99.90
21261;DHT22;10788;47.930;9.766;2024-03-29T13:46:35;20.40;99.90
21261;DHT22;10788;47.930;9.766;2024-03-29T13:49:02;20.40;99.90
21261;DHT22;10788;47.930;9.766;2024-03-29T13:51:29;20.20;99.90
21261;DHT22;10788;47.930;9.766;2024-03-29T13:53:54;20.10;99.90
21261;DHT22;10788;47.930;9.766;2024-03-29T13:56:20;20.10;99.90
21261;DHT22;10788;47.930;9.766;2024-03-29T13:58:46;20.00;99.90
21261;DHT22;10788;47.930;9.766;2024-03-29T14:01:12;20.00;99.90
21261;DHT22;10788;47.930;9.766;2024-03-29T14:03:38;20.00;99.90
21261;DHT22;10788;47.930;9.766;2024-03-29T14:06:04;20.00;99.90
21261;DHT22;10788;47.930;9.766;2024-03-29T14:08:31;20.00;99.90
21261;DHT22;10788;47.930;9.766;2024-03-29T14:10:57;19.90;99.90
21261;DHT22;10788;47.930;9.766;2024-03-29T14:13:23;19.90;99.90
21261;DHT22;10788;47.930;9.766;2024-03-29T14:15:49;19.90;99.90
21261;DHT22;10788;47.930;9.766;2024-03-29T14:18:15;19.90;99.90
21261;DHT22;10788;47.930;9.766;2024-03-29T14:20:40;19.80;99.90
21261;DHT22;10788;47.930;9.766;2024-03-29T14:23:06;19.80;99.90
21261;DHT22;10788;47.930;9.766;2024-03-29T14:25:35;19.80;99.90
21261;DHT22;10788;47.930;9.766;2024-03-29T14:28:02;19.80;99.90
21261;DHT22;10788;47.930;9.766;2024-03-29T14:30:29;19.70;99.90
21261;DHT22;10788;47.930;9.766;2024-03-29T14:32:57;19.70;99.90
21261;DHT22;10788;47.930;9.766;2024-03-29T14:35:27;19.70;99.90
21261;DHT22;10788;47.930;9.766;2024-03-29T14:37:54;19.60;99.90
21261;DHT22;10788;47.930;9.766;2024-03-29T14:40:21;19.60;99.90
21261;DHT22;10788;47.930;9.766;2024-03-29T14:42:46;19.40;99.90
21261;DHT22;10788;47.930;9.766;2024-03-29T14:45:12;19.40;99.90
21261;DHT22;10788;47.930;9.766;2024-03-29T14:47:38;19.30;99.90
21261;DHT22;10788;47.930;9.766;2024-03-29T14:50:04;19.30;99.90
21261;DHT22;10788;47.930;9.766;2024-03-29T14:52:32;19.30;99.90
21261;DHT22;10788;47.930;9.766;2024-03-29T14:54:58;19.30;99.90
21261;DHT22;10788;47.930;9.766;2024-03-29T14:57:23;19.30;99.90
21261;DHT22;10788;47.930;9.766;2024-03-29T14:59:49;19.30;99.90
21261;DHT22;10788;47.930;9.766;2024-03-29T15:02:15;19.30;99.90
21261;DHT22;10788;47.930;9.766;2024-03-29T15:04:41;19.30;99.90
21261;DHT22;10788;47.930;9.766;2024-03-29T15:07:06;19.20;99.90
21261;DHT22;10788;47.930;9.766;2024-03-29T15:09:33;19.20;99.90
21261;DHT22;10788;47.930;9.766;2024-03-29T15:12:00;19.20;99.90
21261;DHT22;10788;47.930;9.766;2024-03-29T15:14:27;19.10;99.90
21261;DHT22;10788;47.930;9.766;2024-03-29T15:16:53;19.00;99.90
21261;DHT22;10788;47.930;9.766;2024-03-29T15:19:18;19.00;99.90
21261;DHT22;10788;47.930;9.766;2024-03-29T15:21:44;18.90;99.90
21261;DHT22;10788;47.930;9.766;2024-03-29T15:24:10;18.80;99.90
21261;DHT22;10788;47.930;9.766;2024-03-29T15:26:35;18.80;99.90
21261;DHT22;10788;47.930;9.766;2024-03-29T15:29:04;18.80;99.90
21261;DHT22;10788;47.930;9.766;2024-03-29T15:31:40;18.70;99.90
21261;DHT22;10788;47.930;9.766;2024-03-29T15:34:10;18.70;99.90
21261;DHT22;10788;47.930;9.766;2024-03-29T15:36:37;18.60;99.90
21261;DHT22;10788;47.930;9.766;2024-03-29T15:39:03;18.60;99.90